Time;durP1;ratioP1;P1;durP2;ratioP2;P2;SDS_P1;SDS_P2;PMS_P1;PMS_P2;Temp;Humidity;BMP_temperature;BMP_pressure;BME280_temperature;BME280_humidity;BME280_pressure;Samples;Min_cycle;Max_cycle;Signal;HPM_P1;HPM_P2
2022/06/02 00:00:26;;;;;;;7.83;5.33;;;11.70;99.90;;;;;;5003536;28;20959;-78
2022/06/02 00:03:28;;;;;;;9.20;5.73;;;11.70;99.90;;;;;;5003254;28;20434;-77
2022/06/02 00:06:29;;;;;;;6.00;4.57;;;11.60;99.90;;;;;;5021004;28;20412;-77
2022/06/02 00:09:19;;;;;;;6.53;4.20;;;11.50;99.90;;;;;;5020678;28;20958;-78
2022/06/02 00:12:07;;;;;;;7.60;5.50;;;11.40;99.90;;;;;;5023517;28;20891;-77
2022/06/02 00:14:53;;;;;;;7.53;5.67;;;11.40;99.90;;;;;;5007045;28;20515;-78
2022/06/02 00:17:42;;;;;;;7.53;5.60;;;11.40;99.90;;;;;;5006552;28;20507;-78
2022/06/02 00:20:41;;;;;;;7.37;5.60;;;11.30;99.90;;;;;;5006222;28;20824;-78
2022/06/02 00:23:33;;;;;;;9.40;5.70;;;11.30;99.90;;;;;;4940225;28;20507;-78
2022/06/02 00:26:17;;;;;;;8.87;6.87;;;11.20;99.90;;;;;;5023998;28;20412;-78
2022/06/02 00:28:54;;;;;;;7.90;5.80;;;11.20;99.90;;;;;;5023789;28;20407;-78
2022/06/02 00:31:26;;;;;;;8.30;6.37;;;11.10;99.90;;;;;;5024044;28;20419;-77
2022/06/02 00:34:00;;;;;;;7.13;5.23;;;11.20;99.90;;;;;;5006588;28;20427;-78
2022/06/02 00:36:47;;;;;;;9.97;6.27;;;11.20;99.90;;;;;;5007190;28;20427;-78
2022/06/02 00:39:16;;;;;;;9.50;5.50;;;11.10;99.90;;;;;;4957790;28;20497;-78
2022/06/02 00:41:53;;;;;;;8.07;5.60;;;11.10;99.90;;;;;;5006691;28;20452;-77
2022/06/02 00:44:39;;;;;;;6.87;5.57;;;11.10;99.90;;;;;;5006631;28;20427;-77
2022/06/02 00:47:33;;;;;;;10.90;5.80;;;11.10;99.90;;;;;;5024440;28;20409;-77
2022/06/02 00:50:04;;;;;;;8.47;6.53;;;11.10;99.90;;;;;;5006157;28;20522;-78
2022/06/02 00:53:08;;;;;;;9.00;5.90;;;11.00;99.90;;;;;;5024068;28;20416;-77
2022/06/02 00:58:42;;;;;;;9.30;6.27;;;11.00;99.90;;;;;;5014059;28;20479;-78
2022/06/02 01:01:29;;;;;;;12.87;7.40;;;10.90;99.90;;;;;;4986606;28;20417;-78
2022/06/02 01:03:56;;;;;;;8.43;6.70;;;10.90;99.90;;;;;;4986014;28;20431;-78
2022/06/02 01:06:43;;;;;;;7.40;5.87;;;10.80;99.90;;;;;;4985805;28;20428;-78
2022/06/02 01:09:08;;;;;;;7.70;5.77;;;10.80;99.90;;;;;;5020372;28;20450;-78
2022/06/02 01:11:49;;;;;;;7.80;5.47;;;10.90;99.90;;;;;;5005508;28;20647;-77
2022/06/02 01:14:43;;;;;;;8.23;6.00;;;10.90;99.90;;;;;;5005162;28;20177;-78
2022/06/02 01:17:16;;;;;;;8.93;6.60;;;10.70;99.90;;;;;;4945399;28;20428;-78
2022/06/02 01:20:02;;;;;;;13.07;6.57;;;10.70;99.90;;;;;;4988008;28;20555;-77
2022/06/02 01:22:59;;;;;;;7.77;5.90;;;10.80;99.90;;;;;;4986226;28;20453;-78
2022/06/02 01:25:36;;;;;;;8.60;5.87;;;10.80;99.90;;;;;;4986667;28;20492;-78
2022/06/02 01:28:37;;;;;;;9.97;5.63;;;10.80;99.90;;;;;;4986482;28;20439;-78
2022/06/02 01:31:21;;;;;;;8.50;5.47;;;10.70;99.90;;;;;;5004420;28;20419;-77
2022/06/02 01:34:12;;;;;;;8.60;6.20;;;10.70;99.90;;;;;;5003924;28;20452;-78
2022/06/02 01:36:42;;;;;;;9.53;6.50;;;10.70;99.90;;;;;;5003793;28;20488;-78
2022/06/02 01:39:25;;;;;;;9.00;5.60;;;10.70;99.90;;;;;;5002490;28;20480;-77
2022/06/02 01:42:04;;;;;;;7.57;5.30;;;10.70;99.90;;;;;;5004458;28;20408;-78
2022/06/02 01:44:55;;;;;;;9.17;5.97;;;10.70;99.90;;;;;;5003603;28;20400;-77
2022/06/02 01:47:30;;;;;;;8.33;6.43;;;10.60;99.90;;;;;;4985306;28;20496;-78
2022/06/02 01:50:19;;;;;;;11.23;5.70;;;10.70;99.90;;;;;;4986058;28;20451;-78
2022/06/02 01:53:21;;;;;;;6.43;5.07;;;10.60;99.90;;;;;;5003016;28;20420;-77
2022/06/02 01:56:16;;;;;;;10.10;6.53;;;10.60;99.90;;;;;;4904245;29;20519;-78
2022/06/02 01:59:20;;;;;;;10.30;7.07;;;10.60;99.90;;;;;;4985159;28;20468;-78
2022/06/02 02:02:09;;;;;;;10.17;6.40;;;10.50;99.90;;;;;;4985433;28;20490;-78
2022/06/02 02:04:46;;;;;;;9.00;6.47;;;10.30;99.90;;;;;;5002046;28;20515;-77
2022/06/02 02:07:27;;;;;;;12.23;6.30;;;10.40;99.90;;;;;;4984417;28;20941;-78
2022/06/02 02:10:43;;;;;;;8.00;5.53;;;10.40;99.90;;;;;;4984678;28;20539;-77
2022/06/02 02:13:35;;;;;;;6.20;5.10;;;10.40;99.90;;;;;;4985158;28;20435;-77
2022/06/02 02:16:18;;;;;;;8.00;5.27;;;10.40;99.90;;;;;;4963798;28;20440;-77
2022/06/02 02:18:58;;;;;;;7.50;5.33;;;10.40;99.90;;;;;;4984018;28;20465;-78
2022/06/02 02:21:37;;;;;;;9.47;6.00;;;10.40;99.90;;;;;;4984155;28;20524;-78
2022/06/02 02:24:41;;;;;;;11.50;6.60;;;10.30;99.90;;;;;;4984367;28;20423;-78
2022/06/02 02:27:20;;;;;;;8.23;5.93;;;10.40;99.90;;;;;;4982839;28;20466;-78
2022/06/02 02:30:00;;;;;;;8.33;5.90;;;10.40;99.90;;;;;;5001539;28;20456;-77
2022/06/02 02:32:54;;;;;;;9.23;5.60;;;10.30;99.90;;;;;;5001312;28;20397;-78
2022/06/02 02:35:44;;;;;;;9.40;6.00;;;10.20;99.90;;;;;;4970199;28;20791;-77
2022/06/02 02:38:32;;;;;;;10.17;6.73;;;10.20;99.90;;;;;;4983723;28;20529;-78
2022/06/02 02:41:04;;;;;;;8.00;5.60;;;10.10;99.90;;;;;;5000699;28;20432;-78
2022/06/02 02:43:56;;;;;;;10.00;6.57;;;10.10;99.90;;;;;;4983675;28;20435;-77
2022/06/02 02:46:35;;;;;;;8.13;6.33;;;10.10;99.90;;;;;;4982534;28;20411;-77
2022/06/02 02:49:13;;;;;;;11.43;6.70;;;10.20;99.90;;;;;;4983296;28;20473;-78
2022/06/02 02:52:01;;;;;;;8.63;6.13;;;10.20;99.90;;;;;;4983365;28;20424;-78
2022/06/02 02:54:53;;;;;;;8.70;6.17;;;10.10;99.90;;;;;;4983774;28;20910;-78
2022/06/02 02:57:48;;;;;;;9.67;6.13;;;10.00;99.90;;;;;;4999682;28;20771;-77
2022/06/02 03:00:23;;;;;;;9.60;6.00;;;10.00;99.90;;;;;;4983237;28;20554;-77
2022/06/02 03:03:10;;;;;;;8.00;5.60;;;10.00;99.90;;;;;;4982144;28;20417;-77
2022/06/02 03:06:23;;;;;;;12.13;6.20;;;10.10;99.90;;;;;;4999655;28;20403;-78
2022/06/02 03:09:09;;;;;;;9.80;7.27;;;10.10;99.90;;;;;;4885663;29;20481;-78
2022/06/02 03:11:53;;;;;;;9.77;6.87;;;10.10;99.90;;;;;;4978008;28;20425;-78
2022/06/02 03:14:40;;;;;;;11.63;7.07;;;10.00;99.90;;;;;;4981707;28;20426;-77
2022/06/02 03:17:30;;;;;;;10.77;7.07;;;10.10;99.90;;;;;;4999269;28;20411;-78
2022/06/02 03:20:17;;;;;;;10.30;6.60;;;10.10;99.90;;;;;;4999299;28;20442;-78
2022/06/02 03:22:54;;;;;;;9.73;6.93;;;10.10;99.90;;;;;;4999433;28;20447;-77
2022/06/02 03:25:42;;;;;;;10.30;6.07;;;10.00;99.90;;;;;;4982053;28;20436;-77
2022/06/02 03:28:28;;;;;;;9.90;6.63;;;9.90;99.90;;;;;;4999407;28;20445;-78
2022/06/02 03:31:20;;;;;;;10.57;7.00;;;9.90;99.90;;;;;;4980713;28;20535;-78
2022/06/02 03:34:19;;;;;;;9.20;6.07;;;9.90;99.90;;;;;;4999065;28;20415;-78
2022/06/02 03:36:50;;;;;;;11.90;7.80;;;9.90;99.90;;;;;;4996971;28;20394;-77
2022/06/02 03:39:44;;;;;;;12.20;6.80;;;10.00;99.90;;;;;;4980435;28;20495;-78
2022/06/02 03:42:48;;;;;;;9.50;6.80;;;9.90;99.90;;;;;;4998830;28;20412;-78
2022/06/02 03:45:32;;;;;;;8.97;6.37;;;9.90;99.90;;;;;;4987759;28;20447;-77
2022/06/02 03:48:11;;;;;;;7.90;5.30;;;9.90;99.90;;;;;;4987238;28;20448;-78
2022/06/02 03:51:08;;;;;;;10.37;5.87;;;9.90;99.90;;;;;;5006802;28;20527;-78
2022/06/02 03:53:47;;;;;;;8.07;6.27;;;9.80;99.90;;;;;;4988150;28;20440;-78
2022/06/02 03:56:41;;;;;;;11.43;7.20;;;9.70;99.90;;;;;;5006452;28;20957;-78
2022/06/02 03:59:28;;;;;;;10.90;7.20;;;9.60;99.90;;;;;;4986599;28;20476;-78
2022/06/02 04:02:10;;;;;;;9.13;6.13;;;9.70;99.90;;;;;;5006115;28;20440;-78
2022/06/02 04:04:47;;;;;;;11.67;7.07;;;9.70;99.90;;;;;;4987129;28;20483;-78
2022/06/02 04:07:37;;;;;;;12.80;7.13;;;9.60;99.90;;;;;;5004503;28;20432;-78
2022/06/02 04:10:08;;;;;;;9.73;6.57;;;9.70;99.90;;;;;;4988000;28;20454;-77
2022/06/02 04:15:50;;;;;;;11.37;7.17;;;9.60;99.90;;;;;;5005678;28;20408;-78
2022/06/02 04:18:34;;;;;;;11.17;7.57;;;9.60;99.90;;;;;;4989704;28;20472;-78
2022/06/02 04:21:25;;;;;;;14.33;8.60;;;9.70;99.90;;;;;;5003314;28;20419;-78
2022/06/02 04:24:12;;;;;;;10.93;7.30;;;9.80;99.90;;;;;;4999490;28;20465;-79
2022/06/02 04:26:51;;;;;;;11.70;7.77;;;9.90;99.90;;;;;;4988535;28;20429;-78
2022/06/02 04:29:27;;;;;;;11.13;7.50;;;10.10;99.90;;;;;;4988825;28;20472;-78
2022/06/02 04:32:31;;;;;;;15.80;8.17;;;10.20;99.90;;;;;;5006341;28;20404;-78
2022/06/02 04:35:12;;;;;;;13.00;9.10;;;10.30;99.90;;;;;;4988072;28;20500;-78
2022/06/02 04:37:57;;;;;;;11.80;8.63;;;10.30;99.90;;;;;;5010890;28;20457;-78
2022/06/02 04:41:07;;;;;;;11.20;8.10;;;10.40;99.90;;;;;;5003116;28;20526;-78
2022/06/02 04:44:03;;;;;;;11.53;7.90;;;10.50;99.90;;;;;;5024210;28;20507;-78
2022/06/02 04:47:04;;;;;;;12.87;8.73;;;10.50;99.90;;;;;;5006578;28;20412;-78
2022/06/02 04:49:37;;;;;;;13.30;9.40;;;10.60;99.90;;;;;;4969326;28;20506;-78
2022/06/02 04:52:05;;;;;;;12.77;9.33;;;10.70;99.90;;;;;;5024064;28;20420;-78
2022/06/02 04:54:36;;;;;;;13.50;8.90;;;10.80;99.90;;;;;;5024349;28;20411;-78
2022/06/02 04:57:08;;;;;;;12.13;8.57;;;10.90;99.90;;;;;;5022532;28;20444;-78
2022/06/02 05:00:04;;;;;;;13.27;7.87;;;11.00;99.90;;;;;;5023863;28;20471;-78
2022/06/02 05:02:48;;;;;;;12.90;8.73;;;11.10;99.90;;;;;;5007137;28;20412;-78
2022/06/02 05:05:38;;;;;;;14.07;9.73;;;11.30;99.90;;;;;;5006077;28;20483;-78
2022/06/02 05:08:22;;;;;;;13.03;9.27;;;11.40;99.90;;;;;;5005789;28;20415;-77
2022/06/02 05:11:25;;;;;;;13.00;8.90;;;11.40;99.90;;;;;;5023390;28;20485;-78
2022/06/02 05:14:09;;;;;;;13.23;8.67;;;11.50;99.90;;;;;;5005635;28;20521;-78
2022/06/02 05:16:48;;;;;;;13.70;8.67;;;11.60;99.90;;;;;;5005497;28;20905;-77
2022/06/02 05:19:17;;;;;;;14.10;9.37;;;11.70;99.90;;;;;;5022976;28;20464;-78
2022/06/02 05:22:11;;;;;;;13.73;8.50;;;11.90;99.90;;;;;;5023413;28;20409;-78
2022/06/02 05:25:32;;;;;;;13.87;8.70;;;11.90;99.90;;;;;;4984529;28;20472;-78
2022/06/02 05:28:27;;;;;;;15.00;8.50;;;12.00;99.90;;;;;;4935809;28;20995;-78
2022/06/02 05:31:23;;;;;;;12.27;7.70;;;12.20;99.90;;;;;;5022238;28;20747;-78
2022/06/02 05:33:58;;;;;;;12.53;8.70;;;12.30;99.90;;;;;;5023135;28;20432;-78
2022/06/02 05:36:46;;;;;;;14.07;9.63;;;12.40;99.90;;;;;;5003839;28;20434;-78
2022/06/02 05:39:14;;;;;;;12.57;9.20;;;12.50;99.90;;;;;;5004494;28;20480;-78
2022/06/02 05:42:00;;;;;;;12.20;9.23;;;12.60;99.90;;;;;;5004676;28;20710;-78
2022/06/02 05:44:50;;;;;;;12.33;8.13;;;12.60;99.90;;;;;;5004662;28;20427;-78
2022/06/02 05:47:34;;;;;;;11.27;9.10;;;12.70;99.90;;;;;;5021809;28;20748;-78
2022/06/02 05:50:18;;;;;;;11.67;8.53;;;12.80;99.90;;;;;;5022320;28;20939;-77
2022/06/02 05:52:55;;;;;;;11.20;9.00;;;12.90;99.90;;;;;;5004938;28;20455;-78
2022/06/02 05:55:41;;;;;;;13.23;9.60;;;13.00;99.90;;;;;;5004688;28;20412;-78
2022/06/02 05:58:38;;;;;;;11.83;8.73;;;13.10;99.90;;;;;;5022398;28;20467;-78
2022/06/02 06:01:09;;;;;;;11.77;8.47;;;13.20;99.90;;;;;;5021385;28;20495;-77
2022/06/02 06:03:57;;;;;;;14.23;10.50;;;13.30;99.90;;;;;;5022494;28;20404;-78
2022/06/02 06:07:01;;;;;;;17.50;11.67;;;13.30;99.90;;;;;;5004418;28;20420;-77
2022/06/02 06:09:51;;;;;;;14.10;10.63;;;13.40;99.90;;;;;;5021679;28;20440;-77
2022/06/02 06:12:48;;;;;;;12.40;9.50;;;13.40;99.90;;;;;;5022398;28;20452;-78
2022/06/02 06:15:40;;;;;;;12.00;9.30;;;13.60;99.90;;;;;;5004820;28;20442;-77
2022/06/02 06:18:06;;;;;;;13.63;9.87;;;13.70;99.90;;;;;;5004803;28;20468;-78
2022/06/02 06:21:00;;;;;;;15.43;10.47;;;13.80;99.90;;;;;;5004437;28;20479;-78
2022/06/02 06:23:38;;;;;;;17.47;11.10;;;13.90;99.90;;;;;;5022265;28;20537;-78
2022/06/02 06:26:09;;;;;;;14.43;10.00;;;14.00;99.90;;;;;;5020793;28;20407;-78
2022/06/02 06:28:40;;;;;;;12.80;11.17;;;14.10;99.90;;;;;;5020996;28;20428;-78
2022/06/02 06:31:20;;;;;;;17.30;11.40;;;14.20;99.90;;;;;;5003767;28;20428;-78
2022/06/02 06:33:59;;;;;;;20.60;11.30;;;14.30;99.90;;;;;;5021008;28;20400;-78
2022/06/02 06:36:38;;;;;;;12.30;9.80;;;14.40;99.90;;;;;;5003391;28;20424;-77
2022/06/02 06:39:22;;;;;;;16.10;10.90;;;14.50;99.90;;;;;;5021655;28;20487;-78
2022/06/02 06:41:56;;;;;;;17.03;12.30;;;14.60;99.90;;;;;;5020717;28;20774;-78
2022/06/02 06:44:56;;;;;;;16.43;11.10;;;14.70;99.90;;;;;;5021105;28;20400;-77
2022/06/02 06:47:30;;;;;;;13.80;10.67;;;14.60;99.90;;;;;;5003509;28;20423;-78
2022/06/02 06:50:03;;;;;;;13.63;10.33;;;14.70;99.90;;;;;;5021563;28;20451;-78
2022/06/02 06:52:56;;;;;;;15.07;12.67;;;14.70;99.90;;;;;;5004933;28;20415;-78
2022/06/02 06:55:46;;;;;;;16.90;11.10;;;14.80;99.90;;;;;;5004757;28;20431;-78
2022/06/02 06:58:51;;;;;;;15.70;11.83;;;14.90;99.90;;;;;;4989196;28;20492;-78
2022/06/02 07:01:16;;;;;;;18.53;11.57;;;15.00;99.90;;;;;;5017762;28;20435;-78
2022/06/02 07:04:00;;;;;;;14.30;10.83;;;15.10;99.90;;;;;;5015588;28;20455;-78
2022/06/02 07:07:01;;;;;;;15.73;11.57;;;15.20;99.90;;;;;;4985746;28;20207;-78
2022/06/02 07:10:04;;;;;;;14.53;10.73;;;15.20;99.90;;;;;;5003061;28;20436;-78
2022/06/02 07:12:50;;;;;;;16.10;11.40;;;15.30;99.90;;;;;;5002659;28;20420;-77
2022/06/02 07:15:34;;;;;;;16.20;12.10;;;15.50;99.90;;;;;;5002223;28;20550;-78
2022/06/02 07:18:38;;;;;;;13.17;9.80;;;15.60;99.90;;;;;;4993462;28;20471;-78
2022/06/02 07:21:34;;;;;;;16.07;10.20;;;15.80;99.90;;;;;;5002940;28;20419;-78
2022/06/02 07:24:26;;;;;;;14.37;10.93;;;15.90;99.90;;;;;;4986477;28;20421;-78
2022/06/02 07:27:21;;;;;;;14.50;11.40;;;16.10;99.90;;;;;;4985207;28;20483;-78
2022/06/02 07:30:16;;;;;;;18.80;12.37;;;16.30;99.90;;;;;;4986219;28;20476;-78
2022/06/02 07:32:55;;;;;;;18.97;11.63;;;16.50;99.90;;;;;;4986344;28;20841;-78
2022/06/02 07:35:38;;;;;;;16.40;12.33;;;16.70;99.90;;;;;;4986016;28;20475;-78
2022/06/02 07:38:22;;;;;;;15.00;11.00;;;17.00;99.90;;;;;;5003376;28;20452;-78
2022/06/02 07:40:51;;;;;;;17.03;11.53;;;17.10;99.90;;;;;;4985253;28;20456;-78
2022/06/02 07:43:45;;;;;;;15.70;10.67;;;17.30;99.90;;;;;;4986527;28;20425;-78
2022/06/02 07:46:27;;;;;;;14.53;11.20;;;17.40;99.90;;;;;;5003237;28;20424;-78
2022/06/02 07:49:06;;;;;;;15.90;12.13;;;17.70;99.90;;;;;;5003250;28;20818;-78
2022/06/02 07:51:42;;;;;;;16.40;11.60;;;18.00;99.90;;;;;;4987252;28;20516;-78
2022/06/02 07:54:29;;;;;;;17.60;12.67;;;18.20;99.90;;;;;;4988125;28;20413;-79
2022/06/02 07:57:14;;;;;;;15.63;11.47;;;18.40;99.90;;;;;;4986976;28;20435;-78
2022/06/02 07:59:59;;;;;;;14.97;10.10;;;18.70;99.90;;;;;;5005421;28;20531;-78
2022/06/02 08:03:10;;;;;;;15.50;11.20;;;18.90;99.90;;;;;;4992731;28;20881;-80
2022/06/02 08:05:59;;;;;;;14.50;11.40;;;19.20;99.90;;;;;;4989669;28;20435;-80
2022/06/02 08:08:46;;;;;;;13.93;8.87;;;20.00;99.90;;;;;;5004302;28;20413;-79
2022/06/02 08:11:38;;;;;;;10.77;8.30;;;21.40;99.90;;;;;;4995526;28;20443;-80
2022/06/02 08:14:29;;;;;;;10.57;8.57;;;22.70;99.90;;;;;;4949566;28;20425;-79
2022/06/02 08:17:06;;;;;;;9.77;8.70;;;23.20;99.90;;;;;;4993473;28;21032;-79
2022/06/02 08:19:59;;;;;;;12.23;9.50;;;22.70;99.90;;;;;;4977116;28;20473;-79
2022/06/02 08:22:47;;;;;;;9.83;7.80;;;23.30;99.90;;;;;;4994525;28;20429;-79
2022/06/02 08:25:22;;;;;;;12.80;8.00;;;24.80;99.90;;;;;;4976684;28;20499;-79
2022/06/02 08:28:14;;;;;;;10.60;7.07;;;25.70;99.90;;;;;;4992687;28;20887;-82
2022/06/02 08:30:44;;;;;;;11.03;7.67;;;26.90;96.20;;;;;;4993226;28;20523;-81
2022/06/02 08:33:13;;;;;;;8.90;7.57;;;27.60;90.40;;;;;;4995336;28;20478;-81
2022/06/02 08:35:52;;;;;;;9.13;7.00;;;28.20;86.40;;;;;;4995950;28;20444;-80
2022/06/02 08:38:55;;;;;;;10.00;7.90;;;29.00;76.80;;;;;;4994486;28;20507;-80
2022/06/02 08:41:58;;;;;;;10.10;7.90;;;29.70;63.40;;;;;;4971923;28;20433;-80
2022/06/02 08:44:45;;;;;;;8.20;7.10;;;30.30;60.20;;;;;;4996046;28;20412;-81
2022/06/02 08:47:34;;;;;;;8.73;7.13;;;30.80;57.70;;;;;;4978069;28;20433;-81
2022/06/02 08:50:30;;;;;;;8.43;7.10;;;31.30;54.30;;;;;;4996272;28;20456;-81
2022/06/02 08:53:27;;;;;;;8.87;7.90;;;31.60;52.70;;;;;;4997077;28;20397;-82
2022/06/02 08:56:11;;;;;;;10.60;8.77;;;32.30;52.20;;;;;;4999206;28;20476;-81
2022/06/02 08:58:59;;;;;;;13.77;8.53;;;31.40;48.50;;;;;;4979825;28;20531;-81
2022/06/02 09:01:46;;;;;;;8.47;7.33;;;29.40;49.60;;;;;;4979265;28;20471;-80
2022/06/02 09:04:30;;;;;;;8.73;7.80;;;28.80;50.90;;;;;;4996470;28;20400;-80
2022/06/02 09:07:23;;;;;;;9.23;7.20;;;28.50;52.00;;;;;;4996705;28;20445;-80
2022/06/02 09:10:11;;;;;;;8.10;6.50;;;28.20;50.50;;;;;;4979195;28;20445;-80
2022/06/02 09:12:55;;;;;;;9.13;7.87;;;26.80;50.00;;;;;;4998243;28;20394;-80
2022/06/02 09:15:42;;;;;;;10.70;7.87;;;25.00;53.20;;;;;;4998218;28;20416;-80
2022/06/02 09:18:18;;;;;;;8.30;6.80;;;23.70;56.20;;;;;;5016514;28;20462;-80
2022/06/02 09:20:57;;;;;;;8.07;6.50;;;22.80;58.00;;;;;;5003963;23;20527;-81
2022/06/02 09:23:55;;;;;;;9.37;7.03;;;22.20;61.40;;;;;;4996875;28;20416;-82
2022/06/02 09:26:48;;;;;;;7.87;6.87;;;21.50;65.10;;;;;;4996453;28;20471;-82
2022/06/02 09:29:29;;;;;;;9.40;7.13;;;21.10;75.50;;;;;;4977788;28;20461;-82
2022/06/02 09:32:25;;;;;;;10.13;6.67;;;20.80;83.10;;;;;;4976890;28;20940;-73
2022/06/02 09:35:14;;;;;;;7.87;5.63;;;20.70;90.50;;;;;;4976967;28;20837;-75
2022/06/02 09:38:13;;;;;;;6.37;4.70;;;20.60;92.50;;;;;;4977086;28;20491;-76
2022/06/02 09:40:39;;;;;;;6.00;4.87;;;20.30;96.40;;;;;;4992976;28;20417;-76
2022/06/02 09:43:36;;;;;;;7.23;5.60;;;20.30;99.30;;;;;;4992167;28;20424;-75
2022/06/02 09:46:23;;;;;;;7.17;5.33;;;20.20;96.60;;;;;;4992342;28;20178;-76
2022/06/02 09:48:52;;;;;;;7.10;6.20;;;20.40;99.10;;;;;;5004352;28;20440;-83
2022/06/02 09:51:37;;;;;;;6.80;5.87;;;22.70;98.40;;;;;;5002494;28;20432;-84
2022/06/02 09:54:37;;;;;;;7.17;6.20;;;25.80;88.10;;;;;;4984694;28;20446;-84
2022/06/02 10:00:24;;;;;;;8.10;5.97;;;31.50;59.60;;;;;;5001057;28;20925;-85
2022/06/02 10:02:56;;;;;;;9.70;6.77;;;33.00;49.90;;;;;;4977341;28;20437;-84
2022/06/02 10:05:31;;;;;;;6.83;5.53;;;32.20;49.20;;;;;;4983600;28;20433;-84
2022/06/02 10:08:18;;;;;;;7.17;5.37;;;33.60;50.80;;;;;;4960406;28;20448;-85
2022/06/02 10:11:06;;;;;;;7.53;5.90;;;35.20;47.00;;;;;;4946138;28;20966;-83
2022/06/02 10:13:51;;;;;;;6.63;5.27;;;36.20;40.80;;;;;;4960345;28;20893;-83
2022/06/02 10:16:23;;;;;;;7.47;4.30;;;36.90;37.60;;;;;;4959961;28;20434;-83
2022/06/02 10:19:08;;;;;;;5.90;5.30;;;37.00;37.80;;;;;;4961033;28;20470;-83
2022/06/02 10:21:46;;;;;;;7.00;6.30;;;36.50;35.10;;;;;;4979170;28;20895;-82
2022/06/02 10:24:34;;;;;;;7.73;6.67;;;34.90;34.50;;;;;;4980638;28;20444;-83
2022/06/02 10:27:18;;;;;;;5.70;4.93;;;32.10;35.70;;;;;;4978706;28;20467;-82
2022/06/02 10:30:23;;;;;;;6.97;6.20;;;30.00;38.60;;;;;;4972256;28;20850;-82
2022/06/02 10:33:34;;;;;;;6.67;4.90;;;28.90;41.00;;;;;;4979049;28;20932;-84
2022/06/02 10:36:42;;;;;;;8.20;4.90;;;29.40;42.20;;;;;;4981536;28;20851;-84
2022/06/02 10:39:39;;;;;;;4.03;3.40;;;29.30;42.00;;;;;;4990466;28;20448;-84
2022/06/02 10:42:22;;;;;;;4.13;3.13;;;28.20;42.60;;;;;;4978927;28;20476;-84
2022/06/02 10:45:30;;;;;;;7.40;5.10;;;27.60;44.70;;;;;;4966386;28;20422;-86
2022/06/02 10:48:15;;;;;;;5.87;4.67;;;27.90;48.50;;;;;;4936735;28;20448;-84
2022/06/02 10:50:47;;;;;;;6.73;5.33;;;28.10;47.50;;;;;;4977739;28;20418;-84
2022/06/02 10:53:31;;;;;;;5.97;4.47;;;28.40;44.80;;;;;;4976126;28;20929;-85
2022/06/02 10:56:21;;;;;;;6.03;5.07;;;29.30;44.70;;;;;;4979415;28;20460;-84
2022/06/02 10:59:16;;;;;;;5.23;4.67;;;29.00;40.70;;;;;;4992605;28;20445;-84
2022/06/02 11:02:19;;;;;;;7.13;4.57;;;28.40;43.80;;;;;;4992755;28;20476;-85
2022/06/02 11:05:06;;;;;;;5.27;4.20;;;28.00;46.50;;;;;;4985421;28;20560;-84
2022/06/02 11:08:07;;;;;;;6.87;4.30;;;27.20;45.70;;;;;;4969447;28;20498;-85
2022/06/02 11:10:42;;;;;;;6.33;4.80;;;26.60;48.00;;;;;;4961404;28;20428;-85
2022/06/02 11:13:24;;;;;;;5.10;4.40;;;26.00;45.10;;;;;;4985282;28;20429;-87
2022/06/02 11:15:58;;;;;;;4.47;4.00;;;25.60;47.20;;;;;;4960967;28;20525;-87
2022/06/02 11:18:36;;;;;;;5.47;4.33;;;25.50;47.90;;;;;;4985627;28;20456;-82
2022/06/02 11:21:36;;;;;;;6.00;3.77;;;25.30;49.10;;;;;;4974979;28;20486;-85
2022/06/02 11:24:20;;;;;;;4.67;3.80;;;24.80;49.10;;;;;;4981264;28;20472;-83
2022/06/02 11:26:54;;;;;;;4.67;3.70;;;24.50;49.60;;;;;;4984498;28;20431;-80
2022/06/02 11:29:32;;;;;;;5.10;4.00;;;24.10;49.50;;;;;;4975068;28;20456;-79
2022/06/02 11:32:31;;;;;;;5.90;4.10;;;23.60;47.90;;;;;;4979010;28;20617;-83
2022/06/02 11:35:06;;;;;;;6.47;3.97;;;23.10;49.00;;;;;;4976552;28;20975;-74
2022/06/02 11:37:44;;;;;;;4.53;3.60;;;22.90;49.80;;;;;;4974356;28;20493;-74
2022/06/02 11:40:45;;;;;;;6.37;4.10;;;22.80;52.00;;;;;;4974926;28;20467;-75
2022/06/02 11:43:20;;;;;;;4.53;3.70;;;22.80;51.10;;;;;;4973683;28;20439;-75
2022/06/02 11:46:07;;;;;;;4.80;4.17;;;23.00;52.30;;;;;;4990536;28;20427;-75
2022/06/02 11:48:52;;;;;;;6.13;3.90;;;23.30;52.40;;;;;;4974394;28;20473;-75
2022/06/02 11:51:39;;;;;;;5.37;3.97;;;23.30;50.70;;;;;;4976115;28;20459;-83
2022/06/02 11:54:13;;;;;;;5.13;4.10;;;23.40;52.70;;;;;;4958685;28;20430;-83
2022/06/02 11:57:02;;;;;;;4.30;3.40;;;23.30;52.80;;;;;;4978518;28;20492;-83
2022/06/02 11:59:31;;;;;;;4.93;3.90;;;23.30;55.20;;;;;;4967038;28;20443;-83
2022/06/02 12:02:15;;;;;;;6.23;3.80;;;23.30;52.90;;;;;;4992005;28;20439;-83
2022/06/02 12:04:59;;;;;;;5.47;3.93;;;23.30;51.40;;;;;;4995741;28;20414;-83
2022/06/02 12:08:14;;;;;;;4.47;3.50;;;23.30;52.50;;;;;;4977905;28;20487;-83
2022/06/02 12:11:01;;;;;;;7.53;3.67;;;23.50;52.80;;;;;;4966500;28;20432;-80
2022/06/02 12:14:01;;;;;;;5.67;3.87;;;23.60;52.20;;;;;;4979609;28;20499;-84
2022/06/02 12:16:46;;;;;;;4.50;3.57;;;23.90;52.10;;;;;;4979502;28;20421;-84
2022/06/02 12:19:14;;;;;;;4.47;3.10;;;24.10;51.00;;;;;;4979330;28;20506;-83
2022/06/02 12:22:04;;;;;;;3.83;3.37;;;24.40;53.20;;;;;;4980367;28;20417;-83
2022/06/02 12:25:14;;;;;;;4.60;3.70;;;24.70;52.30;;;;;;4996196;28;20405;-84
2022/06/02 12:28:10;;;;;;;6.00;4.33;;;24.60;49.60;;;;;;4944230;28;20439;-83
2022/06/02 12:31:00;;;;;;;4.40;3.13;;;24.60;52.40;;;;;;4980815;28;20433;-82
2022/06/02 12:33:49;;;;;;;4.33;3.03;;;24.50;52.10;;;;;;4979410;28;20413;-83
2022/06/02 12:36:29;;;;;;;5.67;3.83;;;24.50;50.20;;;;;;4997742;28;20417;-83
2022/06/02 12:39:30;;;;;;;4.57;3.43;;;24.20;49.50;;;;;;4991126;28;20448;-84
2022/06/02 12:42:39;;;;;;;4.60;2.80;;;24.20;49.50;;;;;;4971328;28;20485;-84
2022/06/02 12:45:42;;;;;;;3.40;3.07;;;24.50;52.30;;;;;;4970544;28;20457;-84
2022/06/02 12:48:23;;;;;;;3.63;2.97;;;24.60;49.70;;;;;;4969142;28;20472;-84
2022/06/02 12:51:10;;;;;;;3.60;2.70;;;24.90;52.30;;;;;;4985567;28;20437;-84
2022/06/02 12:53:42;;;;;;;3.83;3.10;;;25.30;53.90;;;;;;4985820;28;20476;-84
2022/06/02 12:56:19;;;;;;;5.77;3.70;;;25.60;51.40;;;;;;4985235;28;20864;-84
2022/06/02 12:59:21;;;;;;;3.97;3.33;;;25.30;49.70;;;;;;4983638;28;20450;-83
2022/06/02 13:02:14;;;;;;;4.03;3.30;;;25.30;50.30;;;;;;4944757;28;20436;-84
2022/06/02 13:04:59;;;;;;;4.13;3.43;;;25.10;50.90;;;;;;4974890;28;20424;-84
2022/06/02 13:07:55;;;;;;;4.47;3.43;;;24.90;48.90;;;;;;4972333;28;20437;-84
2022/06/02 13:10:34;;;;;;;4.83;3.77;;;24.90;50.20;;;;;;4989304;28;20515;-83
2022/06/02 13:13:39;;;;;;;4.73;3.50;;;24.60;49.60;;;;;;4971331;28;20422;-84
2022/06/02 13:16:27;;;;;;;4.37;3.43;;;24.60;51.50;;;;;;4969617;28;20429;-84
2022/06/02 13:19:23;;;;;;;4.03;2.70;;;24.70;51.20;;;;;;4968246;28;20442;-84
2022/06/02 13:22:04;;;;;;;3.63;2.50;;;24.80;52.50;;;;;;4985542;28;20933;-83
2022/06/02 13:24:32;;;;;;;4.37;3.20;;;25.10;53.00;;;;;;4984988;28;20422;-84
2022/06/02 13:27:03;;;;;;;4.60;2.80;;;25.30;51.30;;;;;;4983103;28;20481;-84
2022/06/02 13:29:48;;;;;;;3.20;2.53;;;25.70;51.10;;;;;;4983936;28;20522;-84
2022/06/02 13:32:41;;;;;;;3.50;2.50;;;26.20;48.60;;;;;;4982959;28;20421;-84
2022/06/02 13:35:48;;;;;;;4.20;2.57;;;26.50;50.50;;;;;;4983366;28;20457;-84
2022/06/02 13:39:11;;;;;;;3.03;2.47;;;26.30;52.30;;;;;;4982028;28;20457;-84
2022/06/02 13:41:45;;;;;;;3.93;3.27;;;26.30;51.80;;;;;;4903661;29;20448;-83
2022/06/02 13:44:41;;;;;;;3.10;2.40;;;26.00;49.00;;;;;;4902463;29;21009;-84
2022/06/02 13:47:22;;;;;;;3.30;2.33;;;25.60;51.40;;;;;;4958525;28;20442;-83
2022/06/02 13:49:56;;;;;;;3.53;2.50;;;25.30;51.60;;;;;;4979582;28;20960;-84
2022/06/02 13:52:41;;;;;;;3.63;2.37;;;25.00;50.30;;;;;;4980311;28;20448;-85
2022/06/02 13:58:21;;;;;;;3.47;2.47;;;24.90;54.20;;;;;;4980362;28;20425;-84
2022/06/02 14:01:05;;;;;;;2.90;2.23;;;24.80;55.60;;;;;;4977814;28;20488;-84
2022/06/02 14:03:40;;;;;;;3.13;2.30;;;24.70;51.30;;;;;;4973478;28;20427;-83
2022/06/02 14:06:19;;;;;;;4.03;3.07;;;24.70;49.30;;;;;;4973329;28;20425;-84
2022/06/02 14:08:53;;;;;;;3.17;2.30;;;24.60;50.30;;;;;;4957116;28;20464;-83
2022/06/02 14:11:56;;;;;;;3.10;2.30;;;24.60;52.30;;;;;;4973548;28;20421;-83
2022/06/02 14:14:25;;;;;;;2.83;2.30;;;24.40;55.40;;;;;;4957346;28;20476;-83
2022/06/02 14:17:17;;;;;;;3.23;2.43;;;24.30;50.90;;;;;;4973177;28;20424;-83
2022/06/02 14:20:34;;;;;;;3.07;2.33;;;24.40;52.30;;;;;;4956928;28;20875;-83
2022/06/02 14:23:12;;;;;;;3.83;2.37;;;24.60;52.80;;;;;;4930318;28;20710;-83
2022/06/02 14:25:42;;;;;;;3.00;2.00;;;25.00;51.30;;;;;;4972213;28;20425;-83
2022/06/02 14:28:26;;;;;;;2.90;2.03;;;25.20;54.00;;;;;;4972856;28;20500;-83
2022/06/02 14:31:04;;;;;;;3.10;2.20;;;25.70;47.90;;;;;;4956553;28;20465;-83
2022/06/02 14:33:40;;;;;;;3.37;2.60;;;26.00;49.40;;;;;;4972986;28;20472;-84